Portada
METAR-TAF:

METAR-TAF

Aeroports :

Xi'an, Xina

latitud: 34-26N, longitud: 108-45E, altitud: 479 m

Observació

L'informe es va fer fa 38 minuts, a les 05:00 UTC
Vent 4 kt del Nord, variant entre Nord/Nord-Oest i Nord-Est
Temperatura 17°C
Humitat 88%
Pressió 1020 hPa
Visibilitat: 7000 m
Núvols disperses a una alçada de 2000 ft
Cel cobert a una alçada de 6000 ft
pluja

METAR: ZLXY 220500Z 01002MPS 340V040 7000 -RA SCT020 OVC060 17/15 Q1020 NOSIG

Hora: 13:38 (05:38 UTC)

Pronòstic

L'informe es va fer fa 8 hores i 34 minuts, a les 21:04 UTC
Pronòstic vàlid del 22 a les 00 UTC al 22 a les 24 UTC
Vent 6 kt del Est/Nord-Est
Visibilitat: 3000 m
boirina
Evolucionant progressivament
l' 22 a les 13 UTC al 22 a les 14 UTC
Visibilitat: 2000 m
Temporalment
l' 22 a les 18 UTC al 22 a les 24 UTC
Visibilitat: 0400 m
boira

TAF: ZLXY 212104Z 2200/2224 06003MPS 3000 BR NSC TX19/2207Z TN14/2222Z BECMG 2213/2214 2000 TEMPO 2218/2224 0400 FG

Observacions i pronòstics meteorològics de més de 4000 aeroports (METAR i TAF).

Les estacions disponibles són els punts grocs i vermells al mapa.

Posi el ratolí al punt desitjat per veure el nom de l'estació.

Feu clic per veure les observacions i els pronòstics meteorològics.

Per canviar el mapa: feu clic els botons verds amb una creu de color negre per apropar; al botó verd amb un guió per allunyar la imatge; o en les fletxes verdes per a mapes adjacents.


METAR-TAF: